Terminal Aerodrome Forecast
Issued by NWS

Home | Current Version | Previous Version | Text Only | Print | Product List | Glossary On
Versions: 1 2 3 4 5 6 7 8 9 10 11 12 13 14 15 16
000
FTUS41 KBOX 130533
TAFFMH
TAF
KFMH 130533Z 1306/1406 28012G20KT P6SM BKN015
     FM130800 29010G21KT P6SM SCT060
     FM131400 27017G29KT P6SM SCT250
     FM131800 27022G38KT P6SM SCT025
     FM132300 27018G34KT P6SM FEW250
     FM140500 27015G27KT P6SM BKN070=

USA.gov is the U.S. government's official web portal to all federal, state and local government web resources and services.